createdAt,value
2018-11-28T00:02:17.380Z,22.27
2018-11-28T00:07:46.769Z,15.98
2018-11-28T00:13:16.007Z,15.70
2018-11-28T00:18:45.302Z,14.93
2018-11-28T00:24:14.651Z,14.40
2018-11-28T00:29:43.906Z,14.95
2018-11-28T00:35:17.303Z,16.05
2018-11-28T00:40:46.679Z,14.47
2018-11-28T00:46:15.982Z,15.08
2018-11-28T00:51:45.214Z,16.25
2018-11-28T00:57:14.572Z,14.00
2018-11-28T01:02:45.537Z,14.85
2018-11-28T01:08:14.933Z,14.40
2018-11-28T01:13:45.364Z,11.97
2018-11-28T01:19:14.610Z,18.62
2018-11-28T01:24:43.857Z,13.60
2018-11-28T01:30:18.478Z,14.65
2018-11-28T01:35:47.799Z,12.35
2018-11-28T01:41:17.168Z,13.85
2018-11-28T01:46:46.434Z,15.98
2018-11-28T01:52:15.814Z,18.27
2018-11-28T01:57:45.162Z,13.80
2018-11-28T02:03:14.446Z,13.25
2018-11-28T02:08:43.706Z,17.40
2018-11-28T02:14:13.090Z,12.73
2018-11-28T02:19:42.359Z,11.88
2018-11-28T02:25:13.325Z,13.30
2018-11-28T02:30:42.643Z,14.00
2018-11-28T02:36:11.950Z,16.70
2018-11-28T02:41:41.166Z,14.43
2018-11-28T02:47:11.482Z,16.23
2018-11-28T02:52:41.417Z,15.45
2018-11-28T02:58:11.249Z,13.28
2018-11-28T03:03:40.516Z,14.78
2018-11-28T03:09:09.924Z,14.45
2018-11-28T03:14:39.221Z,14.25
2018-11-28T03:20:10.488Z,13.78
2018-11-28T03:25:39.739Z,12.53
2018-11-28T03:31:09.228Z,14.65
2018-11-28T03:36:38.683Z,13.90
2018-11-28T03:42:08.077Z,11.95
2018-11-28T03:47:37.352Z,10.15
2018-11-28T03:53:07.189Z,12.40
2018-11-28T03:58:36.560Z,10.78
2018-11-28T04:04:05.986Z,20.32
2018-11-28T04:09:36.018Z,25.32
2018-11-28T04:15:08.385Z,77.10
2018-11-28T04:20:37.685Z,21.95
2018-11-28T04:26:07.042Z,47.83
2018-11-28T04:31:36.366Z,35.55
2018-11-28T04:37:06.195Z,37.50
2018-11-28T04:42:35.398Z,28.38
2018-11-28T04:48:05.986Z,37.78
2018-11-28T04:53:35.326Z,16.10
2018-11-28T04:59:04.599Z,15.72
2018-11-28T05:04:33.921Z,29.30
2018-11-28T05:10:03.301Z,11.73
2018-11-28T05:15:33.763Z,27.35
2018-11-28T05:21:03.035Z,18.05
2018-11-28T05:26:32.450Z,17.85
2018-11-28T05:32:01.774Z,11.88
2018-11-28T05:37:31.073Z,11.03
2018-11-28T05:43:00.412Z,13.72
2018-11-28T05:48:29.691Z,12.15
2018-11-28T05:53:59.022Z,18.12
2018-11-28T05:59:28.549Z,16.42
2018-11-28T06:04:58.002Z,19.80
2018-11-28T06:10:27.255Z,23.83
2018-11-28T06:15:56.471Z,22.22
2018-11-28T06:21:25.716Z,28.50
2018-11-28T06:26:54.915Z,24.23
2018-11-28T06:32:24.118Z,24.05
2018-11-28T06:37:53.325Z,26.30
2018-11-28T06:43:22.549Z,25.85
2018-11-28T06:48:51.989Z,24.45
2018-11-28T06:54:21.239Z,25.52
2018-11-28T06:59:50.410Z,28.02
2018-11-28T07:05:19.855Z,23.35
2018-11-28T07:10:50.111Z,21.55
2018-11-28T07:16:19.423Z,23.18
2018-11-28T07:21:48.638Z,23.32
2018-11-28T07:27:17.842Z,24.85
2018-11-28T07:32:47.528Z,31.65
2018-11-28T07:38:16.767Z,27.32
2018-11-28T07:43:46.001Z,24.25
2018-11-28T07:49:15.204Z,23.90
2018-11-28T07:54:44.440Z,29.02
2018-11-28T08:00:15.192Z,22.45
2018-11-28T08:05:44.446Z,34.08
2018-11-28T08:11:13.714Z,25.57
2018-11-28T08:16:42.929Z,30.68
2018-11-28T08:22:12.165Z,33.28
2018-11-28T08:27:42.011Z,29.27
2018-11-28T08:33:11.107Z,25.77
2018-11-28T08:38:40.311Z,31.33
2018-11-28T08:44:09.522Z,31.17
2018-11-28T08:49:38.702Z,37.65
2018-11-28T08:55:09.828Z,32.60
2018-11-28T09:00:39.167Z,31.40
2018-11-28T09:06:08.386Z,29.82
2018-11-28T09:11:37.614Z,33.30
2018-11-28T09:17:07.014Z,35.80
2018-11-28T09:22:36.226Z,32.03
2018-11-28T09:28:06.241Z,27.70
2018-11-28T09:33:35.455Z,27.62
2018-11-28T09:39:05.592Z,23.85
2018-11-28T09:44:34.771Z,25.77
2018-11-28T09:50:04.154Z,29.45
2018-11-28T09:55:33.363Z,29.12
2018-11-28T10:01:02.595Z,31.30
2018-11-28T10:06:31.847Z,30.40
2018-11-28T10:12:01.039Z,29.25
2018-11-28T10:17:30.262Z,32.13
2018-11-28T10:22:59.457Z,29.20
2018-11-28T10:28:28.707Z,31.55
2018-11-28T10:33:57.926Z,29.87
2018-11-28T10:39:27.144Z,30.08
2018-11-28T10:44:56.337Z,33.18
2018-11-28T10:50:25.591Z,27.65
2018-11-28T10:55:54.949Z,30.20
2018-11-28T11:01:25.750Z,28.90
2018-11-28T11:07:00.126Z,29.95
2018-11-28T11:12:34.547Z,30.80
2018-11-28T11:18:03.859Z,29.12
2018-11-28T11:23:33.158Z,29.70
2018-11-28T11:29:02.554Z,33.75
2018-11-28T11:34:31.809Z,32.78
2018-11-28T11:40:01.059Z,37.00
2018-11-28T11:45:30.321Z,36.30
2018-11-28T11:50:59.608Z,27.25
2018-11-28T11:56:28.806Z,37.13
2018-11-28T12:01:58.122Z,34.03
2018-11-28T12:07:27.367Z,32.17
2018-11-28T12:12:56.646Z,29.67
2018-11-28T12:18:25.877Z,30.15
2018-11-28T12:23:55.191Z,34.75
2018-11-28T12:29:24.423Z,37.05
2018-11-28T12:34:53.655Z,36.28
2018-11-28T12:40:22.859Z,31.00
2018-11-28T12:45:52.319Z,38.02
2018-11-28T12:51:21.564Z,30.97
2018-11-28T12:56:50.869Z,38.78
2018-11-28T13:02:20.139Z,35.30
2018-11-28T13:07:49.395Z,39.38
2018-11-28T13:13:18.616Z,33.25
2018-11-28T13:18:47.840Z,33.83
2018-11-28T13:24:17.165Z,33.18
2018-11-28T13:29:46.374Z,39.38
2018-11-28T13:35:17.590Z,41.15
2018-11-28T13:40:46.906Z,35.63
2018-11-28T13:46:16.232Z,42.17
2018-11-28T13:51:45.537Z,36.35
2018-11-28T13:57:14.867Z,40.90
2018-11-28T14:02:44.019Z,44.73
2018-11-28T14:08:13.238Z,41.28
2018-11-28T14:13:42.501Z,36.68
2018-11-28T14:19:11.742Z,40.58
2018-11-28T14:24:40.946Z,36.17
2018-11-28T14:30:27.503Z,37.65
2018-11-28T14:35:56.836Z,34.45
2018-11-28T14:41:26.006Z,34.73
2018-11-28T14:46:55.279Z,43.50
2018-11-28T14:52:24.487Z,40.55
2018-11-28T14:57:54.870Z,36.23
2018-11-28T15:03:24.462Z,38.90
2018-11-28T15:08:57.920Z,47.38
2018-11-28T15:14:27.175Z,67.15
2018-11-28T15:19:57.471Z,47.62
2018-11-28T15:25:26.753Z,58.55
2018-11-28T15:30:55.981Z,35.35
2018-11-28T15:36:25.191Z,41.40
2018-11-28T15:41:54.451Z,32.78
2018-11-28T15:47:23.752Z,31.93
2018-11-28T15:52:53.028Z,41.80
2018-11-28T15:58:22.374Z,36.23
2018-11-28T16:03:51.622Z,44.67
2018-11-28T16:11:31.631Z,39.65
2018-11-28T16:17:00.994Z,35.10
2018-11-28T16:22:30.203Z,32.53
2018-11-28T16:27:59.664Z,33.90
2018-11-28T16:33:29.023Z,33.28
2018-11-28T16:38:58.290Z,30.50
2018-11-28T16:44:27.607Z,30.95
2018-11-28T16:49:56.903Z,28.00
2018-11-28T16:55:26.137Z,34.85
2018-11-28T17:00:55.539Z,33.83
2018-11-28T17:06:24.893Z,34.53
2018-11-28T17:11:55.405Z,29.18
2018-11-28T17:17:25.569Z,27.25
2018-11-28T17:22:58.524Z,35.23
2018-11-28T17:28:27.851Z,33.67
2018-11-28T17:33:57.160Z,35.08
2018-11-28T17:39:26.542Z,31.35
2018-11-28T17:44:55.908Z,31.52
2018-11-28T17:50:26.506Z,35.75
2018-11-28T17:55:57.686Z,35.45
2018-11-28T18:01:26.996Z,33.23
2018-11-28T18:06:56.357Z,36.88
2018-11-28T18:12:25.604Z,31.33
2018-11-28T18:17:56.716Z,39.33
2018-11-28T18:23:26.038Z,44.00
2018-11-28T18:28:55.280Z,37.75
2018-11-28T18:34:24.590Z,36.17
2018-11-28T18:39:53.888Z,43.83
2018-11-28T18:45:26.142Z,40.48
2018-11-28T18:50:55.506Z,38.13
2018-11-28T18:56:24.778Z,38.63
2018-11-28T19:01:54.142Z,33.60
2018-11-28T19:07:23.465Z,39.30
2018-11-28T19:12:53.782Z,41.83
2018-11-28T19:18:23.027Z,50.98
2018-11-28T19:23:54.267Z,54.60
2018-11-28T19:29:23.614Z,48.58
2018-11-28T19:34:52.920Z,36.58
2018-11-28T19:40:33.863Z,37.35
2018-11-28T19:46:03.374Z,41.28
2018-11-28T19:51:32.634Z,36.93
2018-11-28T19:57:01.979Z,38.10
2018-11-28T20:02:31.234Z,37.10
2018-11-28T20:08:00.517Z,39.35
2018-11-28T20:13:29.887Z,36.25
2018-11-28T20:18:59.147Z,33.40
2018-11-28T20:24:28.334Z,34.92
2018-11-28T20:29:57.668Z,39.23
2018-11-28T20:35:26.927Z,34.95
2018-11-28T20:40:56.171Z,40.25
2018-11-28T20:46:25.467Z,39.98
2018-11-28T20:51:54.811Z,30.70
2018-11-28T20:57:24.056Z,36.83
2018-11-28T21:02:53.383Z,34.27
2018-11-28T21:08:22.759Z,39.13
2018-11-28T21:13:51.975Z,38.10
2018-11-28T21:19:21.258Z,31.85
2018-11-28T21:24:50.542Z,35.28
2018-11-28T21:30:21.063Z,32.42
2018-11-28T21:35:52.124Z,38.92
2018-11-28T21:41:21.395Z,36.23
2018-11-28T21:46:50.719Z,33.58
2018-11-28T21:52:19.967Z,60.03
2018-11-28T21:57:49.271Z,38.40
2018-11-28T22:03:18.538Z,35.20
2018-11-28T22:08:47.814Z,36.68
2018-11-28T22:14:17.066Z,31.02
2018-11-28T22:19:46.275Z,36.48
2018-11-28T22:25:19.576Z,34.58
2018-11-28T22:30:48.967Z,35.83
2018-11-28T22:36:19.253Z,38.63
2018-11-28T22:41:49.076Z,41.90
2018-11-28T22:47:18.426Z,37.40
2018-11-28T22:52:47.756Z,38.73
2018-11-28T22:58:16.993Z,38.23
2018-11-28T23:03:46.827Z,37.95
2018-11-28T23:09:16.671Z,37.83
2018-11-28T23:14:46.579Z,38.23
2018-11-28T23:20:16.402Z,39.23
2018-11-28T23:25:46.562Z,37.25
2018-11-28T23:31:15.859Z,37.53
2018-11-28T23:36:45.115Z,35.30
2018-11-28T23:42:14.426Z,34.05
2018-11-28T23:47:43.751Z,35.95
2018-11-28T23:53:13.171Z,29.65
2018-11-28T23:58:42.421Z,36.28
